Leconfield, United Kingdom
Current Conditions -  °F | °C
As of 9:50 AM on Saturday 29 Nov 2014 (Local Time) from EGXV Reporting Station
Haze Haze  
Wind Chill: 50°   Ceiling: 900
Heat Index: 50°   Visibility: 3mi
Dew Point: 48°   Wind: 8mph
Humidity: 94%   Direction: 110°ESE
Pressure: 29.88"   Gusts: NA
Location:  53.88°N, 0.46°W
Report Text: EGXV 290950Z AUTO 11007KT 4800 HZ OVC009/// 10/09 Q1012
Loading
Personal Weather Stations






























Interactive Weather Map New forecast layout! Learn more

10-Day Weather Forecast

Advertisements
Track Severe Weather on mobile